sensor_id;sensor_type;location;lat;lon;timestamp;temperature;humidity
19538;DHT22;9914;51.008;4.300;2023-07-20T00:01:08;18.90;99.90
19538;DHT22;9914;51.008;4.300;2023-07-20T00:03:34;19.00;99.90
19538;DHT22;9914;51.008;4.300;2023-07-20T00:05:59;19.00;99.90
19538;DHT22;9914;51.008;4.300;2023-07-20T00:08:25;18.90;99.90
19538;DHT22;9914;51.008;4.300;2023-07-20T00:10:50;19.00;99.90
19538;DHT22;9914;51.008;4.300;2023-07-20T00:13:16;18.90;99.90
19538;DHT22;9914;51.008;4.300;2023-07-20T00:15:44;18.90;99.90
19538;DHT22;9914;51.008;4.300;2023-07-20T00:18:09;18.90;99.90
19538;DHT22;9914;51.008;4.300;2023-07-20T00:20:35;18.80;99.90
19538;DHT22;9914;51.008;4.300;2023-07-20T00:23:01;18.80;99.90
19538;DHT22;9914;51.008;4.300;2023-07-20T00:25:26;18.80;99.90
19538;DHT22;9914;51.008;4.300;2023-07-20T00:27:52;18.90;99.90
19538;DHT22;9914;51.008;4.300;2023-07-20T00:30:18;18.90;99.90
19538;DHT22;9914;51.008;4.300;2023-07-20T00:32:44;18.90;99.90
19538;DHT22;9914;51.008;4.300;2023-07-20T00:35:10;18.90;99.90
19538;DHT22;9914;51.008;4.300;2023-07-20T00:37:37;19.00;99.90
19538;DHT22;9914;51.008;4.300;2023-07-20T00:40:03;19.00;99.90
19538;DHT22;9914;51.008;4.300;2023-07-20T00:42:33;18.80;99.90
19538;DHT22;9914;51.008;4.300;2023-07-20T00:44:59;18.70;99.90
19538;DHT22;9914;51.008;4.300;2023-07-20T00:47:25;18.60;99.90
19538;DHT22;9914;51.008;4.300;2023-07-20T00:49:51;18.50;99.90
19538;DHT22;9914;51.008;4.300;2023-07-20T00:52:19;18.60;99.90
19538;DHT22;9914;51.008;4.300;2023-07-20T00:54:45;18.50;99.90
19538;DHT22;9914;51.008;4.300;2023-07-20T00:57:14;18.40;99.90
19538;DHT22;9914;51.008;4.300;2023-07-20T00:59:40;18.40;99.90
19538;DHT22;9914;51.008;4.300;2023-07-20T01:02:06;18.40;99.90
19538;DHT22;9914;51.008;4.300;2023-07-20T01:04:32;18.50;99.90
19538;DHT22;9914;51.008;4.300;2023-07-20T01:07:16;18.40;99.90
19538;DHT22;9914;51.008;4.300;2023-07-20T01:09:47;18.40;99.90
19538;DHT22;9914;51.008;4.300;2023-07-20T01:12:22;18.40;99.90
19538;DHT22;9914;51.008;4.300;2023-07-20T01:14:48;18.20;99.90
19538;DHT22;9914;51.008;4.300;2023-07-20T01:17:14;18.10;99.90
19538;DHT22;9914;51.008;4.300;2023-07-20T01:19:40;18.10;99.90
19538;DHT22;9914;51.008;4.300;2023-07-20T01:33:15;18.10;99.90
19538;DHT22;9914;51.008;4.300;2023-07-20T01:35:43;18.00;99.90
19538;DHT22;9914;51.008;4.300;2023-07-20T01:38:11;17.90;99.90
19538;DHT22;9914;51.008;4.300;2023-07-20T01:40:38;17.90;99.90
19538;DHT22;9914;51.008;4.300;2023-07-20T01:43:04;17.70;99.90
19538;DHT22;9914;51.008;4.300;2023-07-20T01:45:29;17.60;99.90
19538;DHT22;9914;51.008;4.300;2023-07-20T01:47:55;17.60;99.90
19538;DHT22;9914;51.008;4.300;2023-07-20T01:50:20;17.60;99.90
19538;DHT22;9914;51.008;4.300;2023-07-20T01:52:46;17.60;99.90
19538;DHT22;9914;51.008;4.300;2023-07-20T01:55:12;17.60;99.90
19538;DHT22;9914;51.008;4.300;2023-07-20T01:57:37;17.60;99.90
19538;DHT22;9914;51.008;4.300;2023-07-20T02:00:03;17.60;99.90
19538;DHT22;9914;51.008;4.300;2023-07-20T02:02:29;17.60;99.90
19538;DHT22;9914;51.008;4.300;2023-07-20T02:04:55;17.50;99.90
19538;DHT22;9914;51.008;4.300;2023-07-20T02:07:21;17.60;99.90
19538;DHT22;9914;51.008;4.300;2023-07-20T02:09:46;17.50;99.90
19538;DHT22;9914;51.008;4.300;2023-07-20T02:12:12;17.40;99.90
19538;DHT22;9914;51.008;4.300;2023-07-20T02:14:38;17.40;99.90
19538;DHT22;9914;51.008;4.300;2023-07-20T02:17:04;17.40;99.90
19538;DHT22;9914;51.008;4.300;2023-07-20T02:19:30;17.50;99.90
19538;DHT22;9914;51.008;4.300;2023-07-20T02:21:56;17.50;99.90
19538;DHT22;9914;51.008;4.300;2023-07-20T02:24:21;17.40;99.90
19538;DHT22;9914;51.008;4.300;2023-07-20T02:26:47;17.30;99.90
19538;DHT22;9914;51.008;4.300;2023-07-20T02:29:12;17.20;99.90
19538;DHT22;9914;51.008;4.300;2023-07-20T02:31:38;17.10;99.90
19538;DHT22;9914;51.008;4.300;2023-07-20T02:34:05;17.10;99.90
19538;DHT22;9914;51.008;4.300;2023-07-20T02:36:31;17.20;99.90
19538;DHT22;9914;51.008;4.300;2023-07-20T02:38:58;17.20;99.90
19538;DHT22;9914;51.008;4.300;2023-07-20T02:41:24;17.20;99.90
19538;DHT22;9914;51.008;4.300;2023-07-20T02:43:50;17.20;99.90
19538;DHT22;9914;51.008;4.300;2023-07-20T02:46:15;17.10;99.90
19538;DHT22;9914;51.008;4.300;2023-07-20T02:48:41;17.10;99.90
19538;DHT22;9914;51.008;4.300;2023-07-20T02:51:06;17.20;99.90
19538;DHT22;9914;51.008;4.300;2023-07-20T02:53:33;17.20;99.90
19538;DHT22;9914;51.008;4.300;2023-07-20T02:55:59;17.30;99.90
19538;DHT22;9914;51.008;4.300;2023-07-20T02:58:24;17.30;99.90
19538;DHT22;9914;51.008;4.300;2023-07-20T03:00:50;17.40;99.90
19538;DHT22;9914;51.008;4.300;2023-07-20T03:03:16;17.40;99.90
19538;DHT22;9914;51.008;4.300;2023-07-20T03:05:42;17.50;99.90
19538;DHT22;9914;51.008;4.300;2023-07-20T03:08:08;17.40;99.90
19538;DHT22;9914;51.008;4.300;2023-07-20T03:10:39;17.40;99.90
19538;DHT22;9914;51.008;4.300;2023-07-20T03:13:06;17.40;99.90
19538;DHT22;9914;51.008;4.300;2023-07-20T03:15:32;17.40;99.90
19538;DHT22;9914;51.008;4.300;2023-07-20T03:17:57;17.40;99.90
19538;DHT22;9914;51.008;4.300;2023-07-20T03:20:24;17.50;99.90
19538;DHT22;9914;51.008;4.300;2023-07-20T03:22:49;17.60;99.90
19538;DHT22;9914;51.008;4.300;2023-07-20T03:25:15;17.70;99.90
19538;DHT22;9914;51.008;4.300;2023-07-20T03:27:41;17.60;99.90
19538;DHT22;9914;51.008;4.300;2023-07-20T03:30:07;17.50;99.90
19538;DHT22;9914;51.008;4.300;2023-07-20T03:32:35;17.40;99.90
19538;DHT22;9914;51.008;4.300;2023-07-20T03:35:01;17.40;99.90
19538;DHT22;9914;51.008;4.300;2023-07-20T03:37:26;17.40;99.90
19538;DHT22;9914;51.008;4.300;2023-07-20T03:39:52;17.40;99.90
19538;DHT22;9914;51.008;4.300;2023-07-20T03:42:18;17.40;99.90
19538;DHT22;9914;51.008;4.300;2023-07-20T03:44:43;17.40;99.90
19538;DHT22;9914;51.008;4.300;2023-07-20T03:47:09;17.50;99.90
19538;DHT22;9914;51.008;4.300;2023-07-20T03:49:35;17.40;99.90
19538;DHT22;9914;51.008;4.300;2023-07-20T03:52:01;17.40;99.90
19538;DHT22;9914;51.008;4.300;2023-07-20T03:54:29;17.40;99.90
19538;DHT22;9914;51.008;4.300;2023-07-20T03:56:54;17.40;99.90
19538;DHT22;9914;51.008;4.300;2023-07-20T03:59:20;17.30;99.90
19538;DHT22;9914;51.008;4.300;2023-07-20T04:01:45;17.30;99.90
19538;DHT22;9914;51.008;4.300;2023-07-20T04:04:11;17.50;99.90
19538;DHT22;9914;51.008;4.300;2023-07-20T04:06:37;17.60;99.90
19538;DHT22;9914;51.008;4.300;2023-07-20T04:09:03;17.70;99.90
19538;DHT22;9914;51.008;4.300;2023-07-20T04:11:32;17.70;99.90
19538;DHT22;9914;51.008;4.300;2023-07-20T04:13:58;17.80;99.90
19538;DHT22;9914;51.008;4.300;2023-07-20T04:16:23;18.00;99.90
19538;DHT22;9914;51.008;4.300;2023-07-20T04:18:49;18.10;99.90
19538;DHT22;9914;51.008;4.300;2023-07-20T04:21:14;18.10;99.90
19538;DHT22;9914;51.008;4.300;2023-07-20T04:23:40;17.90;99.90
19538;DHT22;9914;51.008;4.300;2023-07-20T04:26:06;17.90;99.90
19538;DHT22;9914;51.008;4.300;2023-07-20T04:28:32;17.80;99.90
19538;DHT22;9914;51.008;4.300;2023-07-20T04:31:12;17.90;99.90
19538;DHT22;9914;51.008;4.300;2023-07-20T04:33:39;17.90;99.90
19538;DHT22;9914;51.008;4.300;2023-07-20T04:36:05;17.80;99.90
19538;DHT22;9914;51.008;4.300;2023-07-20T04:38:30;17.80;99.90
19538;DHT22;9914;51.008;4.300;2023-07-20T04:40:56;17.90;99.90
19538;DHT22;9914;51.008;4.300;2023-07-20T04:43:22;18.00;99.90
19538;DHT22;9914;51.008;4.300;2023-07-20T04:45:47;18.00;99.90
19538;DHT22;9914;51.008;4.300;2023-07-20T04:48:15;17.90;99.90
19538;DHT22;9914;51.008;4.300;2023-07-20T04:50:44;17.80;99.90
19538;DHT22;9914;51.008;4.300;2023-07-20T04:53:11;17.80;99.90
19538;DHT22;9914;51.008;4.300;2023-07-20T04:55:38;17.80;99.90
19538;DHT22;9914;51.008;4.300;2023-07-20T04:58:04;17.80;99.90
19538;DHT22;9914;51.008;4.300;2023-07-20T05:00:30;17.80;99.90
19538;DHT22;9914;51.008;4.300;2023-07-20T05:02:56;18.00;99.90
19538;DHT22;9914;51.008;4.300;2023-07-20T05:05:21;18.10;99.90
19538;DHT22;9914;51.008;4.300;2023-07-20T05:07:47;18.20;99.90
19538;DHT22;9914;51.008;4.300;2023-07-20T05:10:13;18.20;99.90
19538;DHT22;9914;51.008;4.300;2023-07-20T05:12:38;18.30;99.90
19538;DHT22;9914;51.008;4.300;2023-07-20T05:15:04;18.30;99.90
19538;DHT22;9914;51.008;4.300;2023-07-20T05:17:30;18.50;99.90
19538;DHT22;9914;51.008;4.300;2023-07-20T05:19:56;18.50;99.90
19538;DHT22;9914;51.008;4.300;2023-07-20T05:22:21;18.50;99.90
19538;DHT22;9914;51.008;4.300;2023-07-20T05:24:47;18.60;99.90
19538;DHT22;9914;51.008;4.300;2023-07-20T05:27:12;18.60;99.90
19538;DHT22;9914;51.008;4.300;2023-07-20T05:29:44;18.60;99.90
19538;DHT22;9914;51.008;4.300;2023-07-20T05:32:09;18.60;99.90
19538;DHT22;9914;51.008;4.300;2023-07-20T05:34:35;18.60;99.90
19538;DHT22;9914;51.008;4.300;2023-07-20T05:37:01;18.70;99.90
19538;DHT22;9914;51.008;4.300;2023-07-20T05:39:26;18.60;99.90
19538;DHT22;9914;51.008;4.300;2023-07-20T05:41:52;18.70;99.90
19538;DHT22;9914;51.008;4.300;2023-07-20T05:44:17;18.80;99.90
19538;DHT22;9914;51.008;4.300;2023-07-20T05:46:43;19.00;99.90
19538;DHT22;9914;51.008;4.300;2023-07-20T05:49:08;19.10;99.90
19538;DHT22;9914;51.008;4.300;2023-07-20T05:51:35;19.20;99.90
19538;DHT22;9914;51.008;4.300;2023-07-20T05:54:00;19.40;99.90
19538;DHT22;9914;51.008;4.300;2023-07-20T05:56:26;19.60;99.90
19538;DHT22;9914;51.008;4.300;2023-07-20T05:58:51;19.60;99.90
19538;DHT22;9914;51.008;4.300;2023-07-20T06:01:17;19.80;99.90
19538;DHT22;9914;51.008;4.300;2023-07-20T06:03:44;19.90;99.90
19538;DHT22;9914;51.008;4.300;2023-07-20T06:06:10;19.90;99.90
19538;DHT22;9914;51.008;4.300;2023-07-20T06:08:37;20.00;99.90
19538;DHT22;9914;51.008;4.300;2023-07-20T06:11:03;20.10;99.90
19538;DHT22;9914;51.008;4.300;2023-07-20T06:13:28;20.20;99.90
19538;DHT22;9914;51.008;4.300;2023-07-20T06:15:54;20.20;99.90
19538;DHT22;9914;51.008;4.300;2023-07-20T06:18:23;20.20;99.90
19538;DHT22;9914;51.008;4.300;2023-07-20T06:20:52;20.30;99.90
19538;DHT22;9914;51.008;4.300;2023-07-20T06:23:21;20.60;99.90
19538;DHT22;9914;51.008;4.300;2023-07-20T06:25:47;20.70;99.90
19538;DHT22;9914;51.008;4.300;2023-07-20T06:28:13;20.80;99.90
19538;DHT22;9914;51.008;4.300;2023-07-20T06:30:39;20.90;99.90
19538;DHT22;9914;51.008;4.300;2023-07-20T06:33:05;20.90;99.90
19538;DHT22;9914;51.008;4.300;2023-07-20T06:35:32;21.10;99.90
19538;DHT22;9914;51.008;4.300;2023-07-20T06:37:57;21.20;99.90
19538;DHT22;9914;51.008;4.300;2023-07-20T06:40:24;21.40;99.90
19538;DHT22;9914;51.008;4.300;2023-07-20T06:42:50;21.40;99.90
19538;DHT22;9914;51.008;4.300;2023-07-20T06:45:15;21.50;99.90
19538;DHT22;9914;51.008;4.300;2023-07-20T06:47:41;21.00;99.90
19538;DHT22;9914;51.008;4.300;2023-07-20T06:50:08;20.90;99.90
19538;DHT22;9914;51.008;4.300;2023-07-20T06:52:34;21.20;99.90
19538;DHT22;9914;51.008;4.300;2023-07-20T06:55:00;21.40;99.90
19538;DHT22;9914;51.008;4.300;2023-07-20T06:57:25;21.60;99.90
19538;DHT22;9914;51.008;4.300;2023-07-20T06:59:51;21.20;99.90
19538;DHT22;9914;51.008;4.300;2023-07-20T07:02:17;21.40;99.90
19538;DHT22;9914;51.008;4.300;2023-07-20T07:04:43;21.60;99.90
19538;DHT22;9914;51.008;4.300;2023-07-20T07:07:09;22.00;99.90
19538;DHT22;9914;51.008;4.300;2023-07-20T07:09:35;22.00;99.90
19538;DHT22;9914;51.008;4.300;2023-07-20T07:12:01;22.20;99.90
19538;DHT22;9914;51.008;4.300;2023-07-20T07:14:26;22.20;99.90
19538;DHT22;9914;51.008;4.300;2023-07-20T07:16:52;22.40;99.90
19538;DHT22;9914;51.008;4.300;2023-07-20T07:19:18;22.60;99.90
19538;DHT22;9914;51.008;4.300;2023-07-20T07:21:43;22.70;99.90
19538;DHT22;9914;51.008;4.300;2023-07-20T07:24:09;22.70;99.90
19538;DHT22;9914;51.008;4.300;2023-07-20T07:26:36;22.70;99.90
19538;DHT22;9914;51.008;4.300;2023-07-20T07:29:02;22.70;99.90
19538;DHT22;9914;51.008;4.300;2023-07-20T07:31:29;22.70;99.90
19538;DHT22;9914;51.008;4.300;2023-07-20T07:33:56;22.90;99.90
19538;DHT22;9914;51.008;4.300;2023-07-20T07:36:22;23.10;99.90
19538;DHT22;9914;51.008;4.300;2023-07-20T07:38:50;23.20;99.90
19538;DHT22;9914;51.008;4.300;2023-07-20T07:41:16;23.50;99.90
19538;DHT22;9914;51.008;4.300;2023-07-20T07:43:42;23.70;99.90
19538;DHT22;9914;51.008;4.300;2023-07-20T07:46:08;23.70;99.90
19538;DHT22;9914;51.008;4.300;2023-07-20T07:48:33;23.70;99.90
19538;DHT22;9914;51.008;4.300;2023-07-20T07:50:59;24.00;99.90
19538;DHT22;9914;51.008;4.300;2023-07-20T07:53:25;24.20;99.90
19538;DHT22;9914;51.008;4.300;2023-07-20T07:55:52;24.30;99.90
19538;DHT22;9914;51.008;4.300;2023-07-20T07:58:17;24.30;99.90
19538;DHT22;9914;51.008;4.300;2023-07-20T08:00:43;24.40;99.90
19538;DHT22;9914;51.008;4.300;2023-07-20T08:03:10;24.40;99.90
19538;DHT22;9914;51.008;4.300;2023-07-20T08:05:36;24.30;99.90
19538;DHT22;9914;51.008;4.300;2023-07-20T08:08:05;24.00;99.90
19538;DHT22;9914;51.008;4.300;2023-07-20T08:10:31;23.90;99.90
19538;DHT22;9914;51.008;4.300;2023-07-20T08:12:56;23.60;99.90
19538;DHT22;9914;51.008;4.300;2023-07-20T08:15:22;23.60;99.90
19538;DHT22;9914;51.008;4.300;2023-07-20T08:17:48;23.60;99.90
19538;DHT22;9914;51.008;4.300;2023-07-20T08:20:15;23.50;99.90
19538;DHT22;9914;51.008;4.300;2023-07-20T08:22:41;23.00;99.90
19538;DHT22;9914;51.008;4.300;2023-07-20T08:25:08;22.80;99.90
19538;DHT22;9914;51.008;4.300;2023-07-20T08:27:34;22.70;99.90
19538;DHT22;9914;51.008;4.300;2023-07-20T08:30:00;22.70;99.90
19538;DHT22;9914;51.008;4.300;2023-07-20T08:32:26;22.60;99.90
19538;DHT22;9914;51.008;4.300;2023-07-20T08:34:52;22.90;99.90
19538;DHT22;9914;51.008;4.300;2023-07-20T08:37:18;23.40;99.90
19538;DHT22;9914;51.008;4.300;2023-07-20T08:39:43;23.90;99.90
19538;DHT22;9914;51.008;4.300;2023-07-20T08:42:09;24.10;99.90
19538;DHT22;9914;51.008;4.300;2023-07-20T08:44:37;24.60;99.90
19538;DHT22;9914;51.008;4.300;2023-07-20T08:47:04;24.40;99.90
19538;DHT22;9914;51.008;4.300;2023-07-20T08:49:36;24.30;99.90
19538;DHT22;9914;51.008;4.300;2023-07-20T08:52:03;24.50;99.90
19538;DHT22;9914;51.008;4.300;2023-07-20T08:54:32;24.50;99.90
19538;DHT22;9914;51.008;4.300;2023-07-20T08:57:02;25.00;99.90
19538;DHT22;9914;51.008;4.300;2023-07-20T08:59:29;25.20;99.90
19538;DHT22;9914;51.008;4.300;2023-07-20T09:01:56;25.10;99.90
19538;DHT22;9914;51.008;4.300;2023-07-20T09:04:23;25.30;99.90
19538;DHT22;9914;51.008;4.300;2023-07-20T09:06:49;25.30;99.90
19538;DHT22;9914;51.008;4.300;2023-07-20T09:09:15;25.20;99.90
19538;DHT22;9914;51.008;4.300;2023-07-20T09:11:41;25.50;99.90
19538;DHT22;9914;51.008;4.300;2023-07-20T09:14:09;25.70;99.90
19538;DHT22;9914;51.008;4.300;2023-07-20T09:16:55;25.90;99.90
19538;DHT22;9914;51.008;4.300;2023-07-20T09:19:21;26.00;99.90
19538;DHT22;9914;51.008;4.300;2023-07-20T09:21:48;26.30;99.90
19538;DHT22;9914;51.008;4.300;2023-07-20T09:24:16;26.30;99.90
19538;DHT22;9914;51.008;4.300;2023-07-20T09:26:43;26.70;99.90
19538;DHT22;9914;51.008;4.300;2023-07-20T09:29:09;27.10;99.90
19538;DHT22;9914;51.008;4.300;2023-07-20T09:31:35;27.10;99.90
19538;DHT22;9914;51.008;4.300;2023-07-20T09:34:01;27.10;99.90
19538;DHT22;9914;51.008;4.300;2023-07-20T09:36:27;26.90;99.90
19538;DHT22;9914;51.008;4.300;2023-07-20T09:38:53;26.60;99.90
19538;DHT22;9914;51.008;4.300;2023-07-20T09:41:20;26.30;99.90
19538;DHT22;9914;51.008;4.300;2023-07-20T09:43:46;25.80;99.90
19538;DHT22;9914;51.008;4.300;2023-07-20T09:46:12;26.10;99.90
19538;DHT22;9914;51.008;4.300;2023-07-20T09:48:37;26.30;99.90
19538;DHT22;9914;51.008;4.300;2023-07-20T09:51:03;26.50;99.90
19538;DHT22;9914;51.008;4.300;2023-07-20T09:53:32;26.80;99.90
19538;DHT22;9914;51.008;4.300;2023-07-20T09:55:59;26.10;99.90
19538;DHT22;9914;51.008;4.300;2023-07-20T09:58:26;26.30;99.90
19538;DHT22;9914;51.008;4.300;2023-07-20T10:00:52;26.50;99.90
19538;DHT22;9914;51.008;4.300;2023-07-20T10:03:21;26.50;99.90
19538;DHT22;9914;51.008;4.300;2023-07-20T10:05:52;26.50;99.90
19538;DHT22;9914;51.008;4.300;2023-07-20T10:08:20;26.60;99.90
19538;DHT22;9914;51.008;4.300;2023-07-20T10:10:49;26.40;99.90
19538;DHT22;9914;51.008;4.300;2023-07-20T10:13:18;26.30;99.90
19538;DHT22;9914;51.008;4.300;2023-07-20T10:15:47;26.50;99.90
19538;DHT22;9914;51.008;4.300;2023-07-20T10:18:29;26.40;99.90
19538;DHT22;9914;51.008;4.300;2023-07-20T10:20:57;26.20;99.90
19538;DHT22;9914;51.008;4.300;2023-07-20T10:23:26;26.50;99.90
19538;DHT22;9914;51.008;4.300;2023-07-20T10:25:55;26.70;99.90
19538;DHT22;9914;51.008;4.300;2023-07-20T10:28:22;26.80;99.90
19538;DHT22;9914;51.008;4.300;2023-07-20T10:30:49;25.90;99.90
19538;DHT22;9914;51.008;4.300;2023-07-20T10:33:17;26.10;99.90
19538;DHT22;9914;51.008;4.300;2023-07-20T10:36:10;26.40;99.90
19538;DHT22;9914;51.008;4.300;2023-07-20T10:43:43;26.50;99.90
19538;DHT22;9914;51.008;4.300;2023-07-20T10:46:11;26.70;99.90
19538;DHT22;9914;51.008;4.300;2023-07-20T10:49:00;26.90;99.90
19538;DHT22;9914;51.008;4.300;2023-07-20T10:51:28;27.10;99.90
19538;DHT22;9914;51.008;4.300;2023-07-20T10:53:56;27.40;99.90
19538;DHT22;9914;51.008;4.300;2023-07-20T10:56:26;26.70;99.90
19538;DHT22;9914;51.008;4.300;2023-07-20T10:59:01;26.70;99.90
19538;DHT22;9914;51.008;4.300;2023-07-20T11:01:44;27.40;99.90
19538;DHT22;9914;51.008;4.300;2023-07-20T11:04:10;28.10;99.90
19538;DHT22;9914;51.008;4.300;2023-07-20T11:06:36;27.60;99.90
19538;DHT22;9914;51.008;4.300;2023-07-20T11:09:10;28.00;99.90
19538;DHT22;9914;51.008;4.300;2023-07-20T11:11:44;28.10;99.90
19538;DHT22;9914;51.008;4.300;2023-07-20T11:14:20;28.20;99.90
19538;DHT22;9914;51.008;4.300;2023-07-20T11:16:47;28.30;99.90
19538;DHT22;9914;51.008;4.300;2023-07-20T11:19:15;28.20;99.90
19538;DHT22;9914;51.008;4.300;2023-07-20T11:21:42;28.60;99.90
19538;DHT22;9914;51.008;4.300;2023-07-20T11:24:08;28.70;99.90
19538;DHT22;9914;51.008;4.300;2023-07-20T11:26:43;28.60;99.90
19538;DHT22;9914;51.008;4.300;2023-07-20T11:29:09;28.40;99.90
19538;DHT22;9914;51.008;4.300;2023-07-20T11:31:36;28.30;99.90
19538;DHT22;9914;51.008;4.300;2023-07-20T11:34:02;28.00;99.90
19538;DHT22;9914;51.008;4.300;2023-07-20T11:36:28;27.70;99.90
19538;DHT22;9914;51.008;4.300;2023-07-20T11:38:54;27.10;99.90
19538;DHT22;9914;51.008;4.300;2023-07-20T11:41:19;26.20;99.90
19538;DHT22;9914;51.008;4.300;2023-07-20T11:43:45;26.70;99.90
19538;DHT22;9914;51.008;4.300;2023-07-20T11:46:11;26.60;99.90
19538;DHT22;9914;51.008;4.300;2023-07-20T11:48:37;26.00;99.90
19538;DHT22;9914;51.008;4.300;2023-07-20T11:51:02;26.60;99.90
19538;DHT22;9914;51.008;4.300;2023-07-20T11:53:29;26.90;99.90
19538;DHT22;9914;51.008;4.300;2023-07-20T11:55:55;26.40;99.90
19538;DHT22;9914;51.008;4.300;2023-07-20T11:58:22;26.90;99.90
19538;DHT22;9914;51.008;4.300;2023-07-20T12:00:48;27.10;99.90
19538;DHT22;9914;51.008;4.300;2023-07-20T12:03:13;27.40;99.90
19538;DHT22;9914;51.008;4.300;2023-07-20T12:05:39;27.80;99.90
19538;DHT22;9914;51.008;4.300;2023-07-20T12:08:05;27.90;99.90
19538;DHT22;9914;51.008;4.300;2023-07-20T12:10:31;28.00;99.90
19538;DHT22;9914;51.008;4.300;2023-07-20T12:13:03;28.00;99.90
19538;DHT22;9914;51.008;4.300;2023-07-20T12:15:29;27.90;99.90
19538;DHT22;9914;51.008;4.300;2023-07-20T12:17:56;27.20;99.90
19538;DHT22;9914;51.008;4.300;2023-07-20T12:22:52;25.50;99.90
19538;DHT22;9914;51.008;4.300;2023-07-20T12:25:19;25.60;99.90
19538;DHT22;9914;51.008;4.300;2023-07-20T12:27:46;25.50;99.90
19538;DHT22;9914;51.008;4.300;2023-07-20T12:30:13;24.60;99.90
19538;DHT22;9914;51.008;4.300;2023-07-20T12:32:42;24.20;99.90
19538;DHT22;9914;51.008;4.300;2023-07-20T12:35:08;24.30;99.90
19538;DHT22;9914;51.008;4.300;2023-07-20T12:37:33;25.00;99.90
19538;DHT22;9914;51.008;4.300;2023-07-20T12:39:59;25.30;99.90
19538;DHT22;9914;51.008;4.300;2023-07-20T12:42:25;25.40;99.90
19538;DHT22;9914;51.008;4.300;2023-07-20T12:44:52;25.20;99.90
19538;DHT22;9914;51.008;4.300;2023-07-20T12:47:18;24.80;99.90
19538;DHT22;9914;51.008;4.300;2023-07-20T12:49:44;23.40;99.90
19538;DHT22;9914;51.008;4.300;2023-07-20T12:52:13;22.80;99.90
19538;DHT22;9914;51.008;4.300;2023-07-20T12:54:39;22.40;99.90
19538;DHT22;9914;51.008;4.300;2023-07-20T12:57:05;22.40;99.90
19538;DHT22;9914;51.008;4.300;2023-07-20T12:59:30;22.40;99.90
19538;DHT22;9914;51.008;4.300;2023-07-20T13:01:56;22.70;99.90
19538;DHT22;9914;51.008;4.300;2023-07-20T13:04:22;23.30;99.90
19538;DHT22;9914;51.008;4.300;2023-07-20T13:06:47;23.70;99.90
19538;DHT22;9914;51.008;4.300;2023-07-20T13:09:13;23.50;99.90
19538;DHT22;9914;51.008;4.300;2023-07-20T13:11:39;23.90;99.90
19538;DHT22;9914;51.008;4.300;2023-07-20T13:14:04;24.10;99.90
19538;DHT22;9914;51.008;4.300;2023-07-20T13:16:30;24.10;99.90
19538;DHT22;9914;51.008;4.300;2023-07-20T13:18:56;24.00;99.90
19538;DHT22;9914;51.008;4.300;2023-07-20T13:21:21;23.80;99.90
19538;DHT22;9914;51.008;4.300;2023-07-20T13:23:48;24.10;99.90
19538;DHT22;9914;51.008;4.300;2023-07-20T13:26:17;24.20;99.90
19538;DHT22;9914;51.008;4.300;2023-07-20T13:28:43;24.30;99.90
19538;DHT22;9914;51.008;4.300;2023-07-20T13:31:08;24.50;99.90
19538;DHT22;9914;51.008;4.300;2023-07-20T13:33:37;24.60;99.90
19538;DHT22;9914;51.008;4.300;2023-07-20T13:36:03;24.80;99.90
19538;DHT22;9914;51.008;4.300;2023-07-20T13:38:31;24.90;99.90
19538;DHT22;9914;51.008;4.300;2023-07-20T13:40:57;24.90;99.90
19538;DHT22;9914;51.008;4.300;2023-07-20T13:43:22;24.70;99.90
19538;DHT22;9914;51.008;4.300;2023-07-20T13:45:48;24.60;99.90
19538;DHT22;9914;51.008;4.300;2023-07-20T13:48:14;24.50;99.90
19538;DHT22;9914;51.008;4.300;2023-07-20T13:50:47;24.40;99.90
19538;DHT22;9914;51.008;4.300;2023-07-20T13:53:12;24.40;99.90
19538;DHT22;9914;51.008;4.300;2023-07-20T13:55:38;24.40;99.90
19538;DHT22;9914;51.008;4.300;2023-07-20T13:58:04;24.50;99.90
19538;DHT22;9914;51.008;4.300;2023-07-20T14:00:30;24.60;99.90
19538;DHT22;9914;51.008;4.300;2023-07-20T14:02:58;24.80;99.90
19538;DHT22;9914;51.008;4.300;2023-07-20T14:05:24;25.00;99.90
19538;DHT22;9914;51.008;4.300;2023-07-20T14:07:50;24.70;99.90
19538;DHT22;9914;51.008;4.300;2023-07-20T14:10:16;24.70;99.90
19538;DHT22;9914;51.008;4.300;2023-07-20T14:12:43;25.20;99.90
19538;DHT22;9914;51.008;4.300;2023-07-20T14:15:10;25.50;99.90
19538;DHT22;9914;51.008;4.300;2023-07-20T14:17:35;26.10;99.90
19538;DHT22;9914;51.008;4.300;2023-07-20T14:20:02;26.70;99.90
19538;DHT22;9914;51.008;4.300;2023-07-20T14:22:30;26.50;99.90
19538;DHT22;9914;51.008;4.300;2023-07-20T14:24:56;27.00;99.90
19538;DHT22;9914;51.008;4.300;2023-07-20T14:27:22;26.40;99.90
19538;DHT22;9914;51.008;4.300;2023-07-20T14:29:47;26.90;99.90
19538;DHT22;9914;51.008;4.300;2023-07-20T14:32:13;27.40;99.90
19538;DHT22;9914;51.008;4.300;2023-07-20T14:34:39;27.40;99.90
19538;DHT22;9914;51.008;4.300;2023-07-20T14:37:06;27.50;99.90
19538;DHT22;9914;51.008;4.300;2023-07-20T14:39:32;27.60;99.90
19538;DHT22;9914;51.008;4.300;2023-07-20T14:41:57;27.60;99.90
19538;DHT22;9914;51.008;4.300;2023-07-20T14:44:23;27.60;99.90
19538;DHT22;9914;51.008;4.300;2023-07-20T14:46:49;27.50;99.90
19538;DHT22;9914;51.008;4.300;2023-07-20T14:49:14;27.30;99.90
19538;DHT22;9914;51.008;4.300;2023-07-20T14:51:40;27.30;99.90
19538;DHT22;9914;51.008;4.300;2023-07-20T14:54:11;27.20;99.90
19538;DHT22;9914;51.008;4.300;2023-07-20T14:56:38;26.80;99.90
19538;DHT22;9914;51.008;4.300;2023-07-20T14:59:04;26.70;99.90
19538;DHT22;9914;51.008;4.300;2023-07-20T15:01:31;26.70;99.90
19538;DHT22;9914;51.008;4.300;2023-07-20T15:03:57;26.40;99.90
19538;DHT22;9914;51.008;4.300;2023-07-20T15:06:23;24.90;99.90
19538;DHT22;9914;51.008;4.300;2023-07-20T15:08:49;24.50;99.90
19538;DHT22;9914;51.008;4.300;2023-07-20T15:11:15;23.60;99.90
19538;DHT22;9914;51.008;4.300;2023-07-20T15:13:41;23.20;99.90
19538;DHT22;9914;51.008;4.300;2023-07-20T15:16:09;23.10;99.90
19538;DHT22;9914;51.008;4.300;2023-07-20T15:18:37;23.00;99.90
19538;DHT22;9914;51.008;4.300;2023-07-20T15:21:03;23.40;99.90
19538;DHT22;9914;51.008;4.300;2023-07-20T15:23:29;22.80;99.90
19538;DHT22;9914;51.008;4.300;2023-07-20T15:25:55;22.10;99.90
19538;DHT22;9914;51.008;4.300;2023-07-20T15:28:21;22.60;99.90
19538;DHT22;9914;51.008;4.300;2023-07-20T15:30:47;22.50;99.90
19538;DHT22;9914;51.008;4.300;2023-07-20T15:33:12;21.60;99.90
19538;DHT22;9914;51.008;4.300;2023-07-20T15:35:39;21.10;99.90
19538;DHT22;9914;51.008;4.300;2023-07-20T15:38:05;20.80;99.90
19538;DHT22;9914;51.008;4.300;2023-07-20T15:40:31;20.50;99.90
19538;DHT22;9914;51.008;4.300;2023-07-20T15:42:56;20.10;99.90
19538;DHT22;9914;51.008;4.300;2023-07-20T15:45:22;19.90;99.90
19538;DHT22;9914;51.008;4.300;2023-07-20T15:47:49;19.70;99.90
19538;DHT22;9914;51.008;4.300;2023-07-20T15:50:14;19.20;99.90
19538;DHT22;9914;51.008;4.300;2023-07-20T15:52:41;19.00;99.90
19538;DHT22;9914;51.008;4.300;2023-07-20T15:55:08;19.30;99.90
19538;DHT22;9914;51.008;4.300;2023-07-20T15:57:33;19.50;99.90
19538;DHT22;9914;51.008;4.300;2023-07-20T16:00:00;19.70;99.90